createdAt,value
2018-10-19T00:00:31.080Z,42.58
2018-10-19T00:06:00.368Z,39.67
2018-10-19T00:11:29.689Z,42.13
2018-10-19T00:17:01.079Z,47.90
2018-10-19T00:22:30.373Z,40.95
2018-10-19T00:27:59.686Z,42.03
2018-10-19T00:33:28.993Z,48.75
2018-10-19T00:38:58.396Z,46.28
2018-10-19T00:44:27.609Z,42.45
2018-10-19T00:49:58.205Z,50.60
2018-10-19T00:55:28.544Z,44.03
2018-10-19T01:00:57.784Z,47.27
2018-10-19T01:06:27.225Z,40.88
2018-10-19T01:11:56.600Z,48.17
2018-10-19T01:17:25.905Z,42.88
2018-10-19T01:22:56.350Z,37.88
2018-10-19T01:28:25.665Z,39.15
2018-10-19T01:33:55.041Z,42.73
2018-10-19T01:39:24.246Z,40.30
2018-10-19T01:44:54.540Z,44.95
2018-10-19T01:50:23.736Z,41.10
2018-10-19T01:55:53.141Z,36.68
2018-10-19T02:01:23.052Z,36.40
2018-10-19T02:06:52.344Z,42.27
2018-10-19T02:12:21.669Z,42.25
2018-10-19T02:17:52.112Z,38.80
2018-10-19T02:23:21.461Z,39.92
2018-10-19T02:28:50.911Z,39.08
2018-10-19T02:34:21.246Z,43.98
2018-10-19T02:39:50.620Z,38.98
2018-10-19T02:45:22.020Z,37.65
2018-10-19T02:50:51.280Z,38.13
2018-10-19T02:56:21.655Z,42.62
2018-10-19T03:01:50.920Z,42.90
2018-10-19T03:07:22.269Z,44.63
2018-10-19T03:12:51.888Z,45.48
2018-10-19T03:18:21.454Z,49.53
2018-10-19T03:23:50.817Z,47.50
2018-10-19T03:29:20.326Z,43.33
2018-10-19T03:34:49.683Z,45.28
2018-10-19T03:40:19.233Z,40.83
2018-10-19T03:45:48.632Z,43.52
2018-10-19T03:51:19.199Z,45.55
2018-10-19T03:56:48.446Z,43.80
2018-10-19T04:02:18.532Z,55.17
2018-10-19T04:07:48.767Z,51.42
2018-10-19T04:13:18.068Z,51.35
2018-10-19T04:18:48.533Z,44.98
2018-10-19T04:24:17.920Z,46.00
2018-10-19T04:29:47.356Z,53.58
2018-10-19T04:35:16.739Z,51.83
2018-10-19T04:40:46.656Z,46.88
2018-10-19T04:46:15.990Z,41.08
2018-10-19T04:51:47.233Z,45.67
2018-10-19T04:57:16.675Z,42.05
2018-10-19T05:02:46.115Z,39.03
2018-10-19T05:08:15.310Z,42.08
2018-10-19T05:13:45.578Z,42.03
2018-10-19T05:19:16.310Z,43.35
2018-10-19T05:24:45.819Z,96.75
2018-10-19T05:30:14.980Z,63.78
2018-10-19T05:35:44.227Z,54.35
2018-10-19T05:41:13.465Z,86.37
2018-10-19T05:46:42.689Z,123.05
2018-10-19T05:52:11.980Z,125.72
2018-10-19T05:57:41.139Z,123.00
2018-10-19T06:03:10.421Z,147.32
2018-10-19T06:08:39.769Z,216.97
2018-10-19T06:14:09.394Z,287.23
2018-10-19T06:19:38.780Z,344.20
2018-10-19T06:25:08.068Z,273.50
2018-10-19T06:30:37.338Z,217.87
2018-10-19T06:36:06.720Z,159.03
2018-10-19T06:41:36.051Z,267.70
2018-10-19T06:47:05.707Z,138.50
2018-10-19T06:52:35.012Z,187.60
2018-10-19T06:58:04.384Z,161.22
2018-10-19T07:03:33.732Z,157.37
2018-10-19T07:09:03.245Z,175.85
2018-10-19T07:14:32.580Z,162.00
2018-10-19T07:20:01.986Z,236.92
2018-10-19T07:25:31.288Z,159.85
2018-10-19T07:31:00.650Z,166.75
2018-10-19T07:36:30.004Z,175.65
2018-10-19T07:41:59.386Z,153.85
2018-10-19T07:47:28.799Z,97.33
2018-10-19T07:52:58.212Z,99.32
2018-10-19T07:58:27.534Z,121.92
2018-10-19T08:03:56.841Z,95.57
2018-10-19T08:09:26.293Z,126.18
2018-10-19T08:14:55.843Z,118.75
2018-10-19T08:20:27.236Z,130.93
2018-10-19T08:25:56.614Z,131.35
2018-10-19T08:31:25.963Z,214.32
2018-10-19T08:36:55.292Z,207.00
2018-10-19T08:42:24.533Z,176.80
2018-10-19T08:47:53.879Z,156.97
2018-10-19T08:53:23.366Z,162.22
2018-10-19T08:58:52.711Z,157.35
2018-10-19T09:04:22.092Z,160.75
2018-10-19T09:09:51.388Z,142.45
2018-10-19T09:15:20.803Z,169.55
2018-10-19T09:20:50.564Z,152.22
2018-10-19T09:26:19.917Z,145.92
2018-10-19T09:31:49.239Z,155.60
2018-10-19T09:37:18.603Z,147.15
2018-10-19T09:42:47.980Z,133.78
2018-10-19T09:48:23.193Z,125.87
2018-10-19T09:53:52.726Z,117.13
2018-10-19T09:59:22.046Z,118.60
2018-10-19T10:04:51.315Z,122.53
2018-10-19T10:10:20.636Z,111.08
2018-10-19T10:15:50.200Z,113.77
2018-10-19T10:21:19.572Z,118.02
2018-10-19T10:26:49.902Z,113.28
2018-10-19T10:32:19.403Z,119.55
2018-10-19T10:37:48.736Z,98.80
2018-10-19T10:43:18.039Z,104.25
2018-10-19T10:48:47.301Z,94.75
2018-10-19T10:54:16.642Z,96.12
2018-10-19T10:59:45.956Z,96.10
2018-10-19T11:05:15.409Z,84.37
2018-10-19T11:10:44.850Z,88.10
2018-10-19T11:16:14.577Z,89.55
2018-10-19T11:21:43.764Z,89.20
2018-10-19T11:27:13.092Z,80.47
2018-10-19T11:32:42.330Z,76.55
2018-10-19T11:38:11.557Z,102.45
2018-10-19T11:43:40.920Z,84.32
2018-10-19T11:49:10.219Z,90.62
2018-10-19T11:54:39.585Z,88.50
2018-10-19T12:00:09.525Z,85.53
2018-10-19T12:05:38.929Z,84.67
2018-10-19T12:11:08.358Z,93.50
2018-10-19T12:16:38.058Z,104.58
2018-10-19T12:22:07.590Z,96.10
2018-10-19T12:27:41.946Z,92.72
2018-10-19T12:33:12.915Z,98.17
2018-10-19T12:38:43.423Z,89.77
2018-10-19T12:44:13.862Z,88.65
2018-10-19T12:49:44.773Z,87.78
2018-10-19T12:55:14.316Z,89.60
2018-10-19T13:00:43.701Z,89.40
2018-10-19T13:06:13.349Z,87.27
2018-10-19T13:11:42.737Z,89.50
2018-10-19T13:17:12.336Z,88.27
2018-10-19T13:22:42.716Z,79.70
2018-10-19T13:28:12.824Z,87.20
2018-10-19T13:33:42.390Z,74.70
2018-10-19T13:39:13.152Z,84.15
2018-10-19T13:44:43.703Z,78.87
2018-10-19T13:50:13.023Z,69.35
2018-10-19T13:55:42.437Z,74.47
2018-10-19T14:01:11.862Z,67.45
2018-10-19T14:06:41.141Z,68.22
2018-10-19T14:12:10.454Z,56.75
2018-10-19T14:17:41.010Z,59.67
2018-10-19T14:23:10.412Z,61.00
2018-10-19T14:28:39.794Z,53.17
2018-10-19T14:34:09.112Z,56.50
2018-10-19T14:39:38.532Z,62.10
2018-10-19T14:45:09.076Z,51.13
2018-10-19T14:50:38.324Z,54.73
2018-10-19T14:56:07.615Z,57.62
2018-10-19T15:01:36.962Z,66.42
2018-10-19T15:07:09.277Z,68.45
2018-10-19T15:12:38.638Z,58.87
2018-10-19T15:18:08.418Z,62.33
2018-10-19T15:23:37.632Z,66.07
2018-10-19T15:29:09.004Z,71.57
2018-10-19T15:34:38.432Z,81.80
2018-10-19T15:40:09.760Z,72.37
2018-10-19T15:45:40.116Z,75.12
2018-10-19T15:51:10.700Z,88.22
2018-10-19T15:56:41.171Z,74.37
2018-10-19T16:02:10.400Z,83.90
2018-10-19T16:07:39.727Z,80.60
2018-10-19T16:13:09.017Z,75.35
2018-10-19T16:18:42.651Z,85.85
2018-10-19T16:24:12.214Z,82.47
2018-10-19T16:29:41.449Z,79.03
2018-10-19T16:35:10.734Z,89.07
2018-10-19T16:40:40.025Z,86.42
2018-10-19T16:46:09.330Z,88.12
2018-10-19T16:51:39.647Z,87.82
2018-10-19T16:57:09.103Z,86.65
2018-10-19T17:02:38.571Z,87.22
2018-10-19T17:08:08.013Z,86.87
2018-10-19T17:13:37.395Z,88.27
2018-10-19T17:19:06.982Z,91.20
2018-10-19T17:24:36.294Z,92.60
2018-10-19T17:30:08.193Z,94.77
2018-10-19T17:35:37.477Z,86.42
2018-10-19T17:41:06.954Z,92.72
2018-10-19T17:46:41.850Z,99.13
2018-10-19T17:52:12.471Z,95.72
2018-10-19T17:57:43.911Z,106.87
2018-10-19T18:03:13.524Z,90.22
2018-10-19T18:08:43.143Z,93.60
2018-10-19T18:14:15.488Z,95.50
2018-10-19T18:19:51.210Z,105.72
2018-10-19T18:25:25.983Z,96.72
2018-10-19T18:31:04.190Z,103.30
2018-10-19T18:36:36.146Z,94.80
2018-10-19T18:42:09.312Z,100.97
2018-10-19T18:47:47.129Z,95.00
2018-10-19T18:53:20.001Z,99.77
2018-10-19T18:58:52.124Z,100.67
2018-10-19T19:04:26.352Z,106.45
2018-10-19T19:10:02.315Z,114.10
2018-10-19T19:15:40.355Z,114.50
2018-10-19T19:21:14.421Z,116.95
2018-10-19T19:26:46.687Z,122.53
2018-10-19T19:32:18.477Z,121.30
2018-10-19T19:37:49.459Z,111.15
2018-10-19T19:43:19.855Z,101.27
2018-10-19T19:48:55.002Z,103.85
2018-10-19T19:54:24.645Z,111.85
2018-10-19T19:59:59.672Z,114.70
2018-10-19T20:05:29.686Z,112.25
2018-10-19T20:10:59.383Z,113.62
2018-10-19T20:16:28.945Z,119.57
2018-10-19T20:21:59.306Z,112.20
2018-10-19T20:27:28.882Z,114.60
2018-10-19T20:32:58.236Z,115.03
2018-10-19T20:38:30.393Z,118.30
2018-10-19T20:44:02.141Z,104.15
2018-10-19T20:49:31.494Z,110.78
2018-10-19T20:55:01.307Z,99.72
2018-10-19T21:00:30.990Z,114.57
2018-10-19T21:06:00.353Z,104.75
2018-10-19T21:11:31.020Z,130.30
2018-10-19T21:17:01.498Z,115.17
2018-10-19T21:22:31.642Z,112.17
2018-10-19T21:28:01.324Z,114.47
2018-10-19T21:33:31.077Z,129.05
2018-10-19T21:39:01.792Z,111.60
2018-10-19T21:44:31.830Z,112.80
2018-10-19T21:50:03.379Z,113.30
2018-10-19T21:55:34.364Z,100.15
2018-10-19T22:01:04.488Z,108.47
2018-10-19T22:06:34.191Z,108.27
2018-10-19T22:12:04.931Z,122.13
2018-10-19T22:17:34.735Z,99.35
2018-10-19T22:23:06.196Z,98.17
2018-10-19T22:28:36.963Z,97.00
2018-10-19T22:34:07.557Z,97.95
2018-10-19T22:39:41.537Z,101.10
2018-10-19T22:45:11.614Z,94.45
2018-10-19T22:50:43.759Z,100.95
2018-10-19T22:56:13.609Z,103.92
2018-10-19T23:01:43.141Z,97.17
2018-10-19T23:07:13.579Z,97.80
2018-10-19T23:12:43.120Z,102.35
2018-10-19T23:18:14.942Z,88.12
2018-10-19T23:23:44.649Z,95.38
2018-10-19T23:29:15.299Z,98.37
2018-10-19T23:34:44.604Z,86.87
2018-10-19T23:40:15.096Z,96.30
2018-10-19T23:45:44.577Z,87.22
2018-10-19T23:51:14.005Z,86.60
2018-10-19T23:56:43.362Z,77.50
